createdAt,value
2022-12-15T00:01:22.142Z,96441.56
2022-12-15T00:06:53.712Z,96373.59
2022-12-15T00:12:21.370Z,96401.47
2022-12-15T00:17:43.083Z,96420.09
2022-12-15T00:23:05.983Z,96396.50
2022-12-15T00:28:36.980Z,96379.06
2022-12-15T00:33:58.734Z,96473.06
2022-12-15T00:39:03.915Z,96435.75
2022-12-15T00:44:07.175Z,96485.97
2022-12-15T00:49:29.984Z,96384.28
2022-12-15T00:54:51.241Z,96254.06
2022-12-15T01:00:12.287Z,96516.13
2022-12-15T01:05:33.600Z,96545.94
2022-12-15T01:10:54.959Z,96551.06
2022-12-15T01:16:17.039Z,96502.38
2022-12-15T01:21:23.279Z,96575.59
2022-12-15T01:26:27.429Z,96586.19
2022-12-15T01:31:30.296Z,96576.69
2022-12-15T01:36:33.064Z,96533.25
2022-12-15T01:41:35.730Z,96296.88
2022-12-15T01:46:38.419Z,96538.47
2022-12-15T01:51:45.656Z,96457.19
2022-12-15T01:56:52.327Z,96594.00
2022-12-15T02:01:55.053Z,96585.50
2022-12-15T02:06:57.811Z,96509.97
2022-12-15T02:12:11.319Z,96609.91
2022-12-15T02:17:23.723Z,96321.16
2022-12-15T02:23:00.280Z,96611.53
2022-12-15T02:28:23.464Z,96620.94
2022-12-15T02:33:30.317Z,96565.09
2022-12-15T02:38:42.336Z,96568.22
2022-12-15T02:43:45.024Z,96566.81
2022-12-15T02:49:14.232Z,96631.50
2022-12-15T02:54:46.393Z,96633.88
2022-12-15T03:00:18.328Z,96643.81
2022-12-15T03:05:22.735Z,96564.03
2022-12-15T03:10:26.811Z,96472.78
2022-12-15T03:15:35.051Z,96578.91
2022-12-15T03:20:38.248Z,96580.97
2022-12-15T03:25:41.011Z,96460.28
2022-12-15T03:30:43.624Z,96414.66
2022-12-15T03:35:48.393Z,96612.56
2022-12-15T03:40:51.073Z,96650.06
2022-12-15T03:45:53.810Z,96619.16
2022-12-15T03:50:56.486Z,96427.34
2022-12-15T03:56:05.160Z,96562.03
2022-12-15T04:01:32.204Z,96498.81
2022-12-15T04:06:34.908Z,96539.81
2022-12-15T04:11:37.739Z,96448.72
2022-12-15T04:16:40.401Z,96650.97
2022-12-15T04:21:43.283Z,96673.25
2022-12-15T04:27:04.471Z,96582.66
2022-12-15T04:32:25.783Z,96681.56
2022-12-15T04:37:46.716Z,96684.00
2022-12-15T04:43:08.231Z,96575.97
2022-12-15T04:48:30.346Z,96639.25
2022-12-15T04:53:51.675Z,96657.69
2022-12-15T04:59:13.006Z,96702.69
2022-12-15T05:04:35.384Z,96715.25
2022-12-15T05:10:02.573Z,96690.75
2022-12-15T05:15:25.467Z,96741.03
2022-12-15T05:20:46.731Z,96714.63
2022-12-15T05:26:11.529Z,96670.63
2022-12-15T05:31:33.051Z,96719.44
2022-12-15T05:36:37.049Z,96688.69
2022-12-15T05:41:39.812Z,96742.03
2022-12-15T05:46:42.738Z,96672.75
2022-12-15T05:51:47.890Z,96747.19
2022-12-15T05:56:50.711Z,96520.63
2022-12-15T06:01:58.291Z,96607.22
2022-12-15T06:07:01.056Z,96770.75
2022-12-15T06:12:03.822Z,96721.19
2022-12-15T06:17:06.681Z,96778.69
2022-12-15T06:22:09.811Z,96680.63
2022-12-15T06:27:12.565Z,96762.34
2022-12-15T06:32:15.183Z,96740.72
2022-12-15T06:37:21.630Z,96778.78
2022-12-15T06:42:24.275Z,96783.41
2022-12-15T06:47:26.927Z,96736.38
2022-12-15T06:52:29.552Z,96692.47
2022-12-15T06:57:32.530Z,96792.53
2022-12-15T07:02:50.104Z,96760.72
2022-12-15T07:07:53.307Z,96812.75
2022-12-15T07:12:59.142Z,96824.13
2022-12-15T07:18:01.759Z,96795.09
2022-12-15T07:23:14.415Z,96828.47
2022-12-15T07:28:27.572Z,96747.59
2022-12-15T07:33:31.323Z,96830.34
2022-12-15T07:38:34.151Z,96824.38
2022-12-15T07:43:37.474Z,96830.22
2022-12-15T07:48:40.446Z,96838.28
2022-12-15T07:53:53.153Z,96821.19
2022-12-15T07:58:55.843Z,96878.72
2022-12-15T08:03:58.843Z,96850.84
2022-12-15T08:09:02.035Z,96889.31
2022-12-15T08:14:07.972Z,96786.00
2022-12-15T08:19:16.175Z,96853.09
2022-12-15T08:24:20.160Z,96856.25
2022-12-15T08:29:50.646Z,96774.69
2022-12-15T08:34:45.541Z,96624.97
2022-12-15T08:39:51.373Z,96851.81
2022-12-15T08:44:54.144Z,96935.72
2022-12-15T08:50:08.787Z,96951.50
2022-12-15T08:55:13.316Z,96902.44
2022-12-15T09:00:19.092Z,96834.81
2022-12-15T09:05:21.748Z,96968.16
2022-12-15T09:10:24.791Z,97010.16
2022-12-15T09:15:51.906Z,96981.31
2022-12-15T09:20:55.371Z,97012.69
2022-12-15T09:26:02.452Z,97016.63
2022-12-15T09:31:08.121Z,97000.09
2022-12-15T09:36:14.141Z,97004.13
2022-12-15T09:41:16.708Z,97009.63
2022-12-15T09:46:29.099Z,97000.84
2022-12-15T09:51:40.512Z,96922.84
2022-12-15T09:56:54.022Z,96980.34
2022-12-15T10:02:34.963Z,96904.59
2022-12-15T10:07:44.541Z,97005.06
2022-12-15T10:12:59.104Z,96902.41
2022-12-15T10:18:41.269Z,96946.56
2022-12-15T10:23:43.916Z,96972.00
2022-12-15T10:29:25.222Z,96985.63
2022-12-15T10:34:35.170Z,96922.69
2022-12-15T10:39:40.744Z,96980.88
2022-12-15T10:44:50.302Z,96969.41
2022-12-15T10:50:25.082Z,96973.38
2022-12-15T10:55:40.154Z,96963.38
2022-12-15T11:00:42.923Z,96953.28
2022-12-15T11:05:53.229Z,96949.25
2022-12-15T11:11:18.643Z,96948.28
2022-12-15T11:16:21.316Z,96895.47
2022-12-15T11:21:31.380Z,96936.25
2022-12-15T11:26:43.946Z,96955.59
2022-12-15T11:31:53.844Z,96928.59
2022-12-15T11:37:08.131Z,96930.13
2022-12-15T11:42:25.457Z,96915.69
2022-12-15T11:47:45.741Z,96909.81
2022-12-15T11:53:01.851Z,96943.84
2022-12-15T11:58:22.794Z,96920.94
2022-12-15T12:03:56.231Z,96920.03
2022-12-15T12:09:18.433Z,96917.31
2022-12-15T12:14:40.143Z,96873.63
2022-12-15T12:20:00.353Z,96838.34
2022-12-15T12:25:16.236Z,96853.84
2022-12-15T12:30:23.378Z,96827.88
2022-12-15T12:35:51.490Z,96926.63
2022-12-15T12:41:12.715Z,96922.91
2022-12-15T12:46:22.012Z,96839.75
2022-12-15T12:51:24.650Z,96897.56
2022-12-15T12:56:39.584Z,96848.63
2022-12-15T13:01:42.448Z,96888.56
2022-12-15T13:06:45.170Z,96882.44
2022-12-15T13:11:49.040Z,96865.94
2022-12-15T13:17:27.307Z,96828.28
2022-12-15T13:22:42.530Z,96862.44
2022-12-15T13:27:52.900Z,96761.91
2022-12-15T13:33:14.153Z,96809.84
2022-12-15T13:38:54.027Z,96787.22
2022-12-15T13:44:01.181Z,96843.16
2022-12-15T13:49:17.296Z,96838.88
2022-12-15T13:54:37.999Z,96824.09
2022-12-15T13:59:40.853Z,96817.44
2022-12-15T14:04:43.493Z,96796.06
2022-12-15T14:09:51.072Z,96751.44
2022-12-15T14:14:54.799Z,96809.66
2022-12-15T14:19:57.568Z,96817.38
2022-12-15T14:25:20.359Z,96830.91
2022-12-15T14:30:30.382Z,96840.47
2022-12-15T14:35:56.028Z,96826.50
2022-12-15T14:41:01.644Z,96820.03
2022-12-15T14:46:19.887Z,96729.41
2022-12-15T14:51:25.070Z,96820.13
2022-12-15T14:56:31.512Z,96604.41
2022-12-15T15:01:34.168Z,96798.09
2022-12-15T15:06:39.282Z,96801.69
2022-12-15T15:11:43.656Z,96684.38
2022-12-15T15:16:57.859Z,96646.50
2022-12-15T15:22:02.151Z,96760.41
2022-12-15T15:27:41.007Z,96760.28
2022-12-15T15:33:02.952Z,96709.25
2022-12-15T15:38:13.948Z,96755.34
2022-12-15T15:43:17.191Z,96752.69
2022-12-15T15:48:31.746Z,96741.13
2022-12-15T15:53:36.519Z,96685.75
2022-12-15T15:58:39.225Z,96521.81
2022-12-15T16:03:42.436Z,96730.78
2022-12-15T16:08:47.370Z,96724.44
2022-12-15T16:13:50.045Z,96612.03
2022-12-15T16:18:52.663Z,96584.22
2022-12-15T16:23:58.046Z,96672.56
2022-12-15T16:29:00.732Z,96611.31
2022-12-15T16:34:14.716Z,96625.53
2022-12-15T16:39:30.040Z,96705.63
2022-12-15T16:44:32.740Z,96686.44
2022-12-15T16:49:40.339Z,96678.66
2022-12-15T16:54:46.033Z,96639.66
2022-12-15T16:59:50.113Z,96644.56
2022-12-15T17:04:52.853Z,96638.34
2022-12-15T17:10:06.374Z,96664.53
2022-12-15T17:15:27.088Z,96646.19
2022-12-15T17:20:31.307Z,96635.44
2022-12-15T17:26:21.098Z,96614.47
2022-12-15T17:31:22.704Z,96620.16
2022-12-15T17:36:28.411Z,96513.69
2022-12-15T17:47:05.515Z,96620.88
2022-12-15T17:52:39.011Z,96606.66
2022-12-15T17:57:55.437Z,96573.94
2022-12-15T18:03:00.227Z,96610.47
2022-12-15T18:08:19.036Z,96603.00
2022-12-15T18:13:23.175Z,96593.38
2022-12-15T18:18:26.710Z,96541.22
2022-12-15T18:23:33.264Z,96426.66
2022-12-15T18:28:36.940Z,96506.63
2022-12-15T18:33:39.874Z,96494.75
2022-12-15T18:38:43.095Z,96470.41
2022-12-15T18:43:46.917Z,96460.06
2022-12-15T18:48:49.668Z,96429.25
2022-12-15T18:53:52.388Z,96455.00
2022-12-15T18:58:55.096Z,96455.78
2022-12-15T19:03:59.696Z,96396.94
2022-12-15T19:09:05.219Z,96485.09
2022-12-15T19:14:38.643Z,96466.03
2022-12-15T19:20:10.852Z,96387.94
2022-12-15T19:25:28.062Z,96456.69
2022-12-15T19:30:41.987Z,96461.34
2022-12-15T19:35:48.673Z,96451.03
2022-12-15T19:40:56.194Z,96383.94
2022-12-15T19:45:59.685Z,96289.91
2022-12-15T19:51:03.229Z,96426.19
2022-12-15T19:56:16.508Z,96437.53
2022-12-15T20:01:21.902Z,96419.81
2022-12-15T20:06:27.421Z,96449.25
2022-12-15T20:11:33.623Z,96422.38
2022-12-15T20:16:37.012Z,96299.31
2022-12-15T20:21:50.691Z,96399.13
2022-12-15T20:26:54.104Z,96302.06
2022-12-15T20:31:59.834Z,96306.47
2022-12-15T20:37:04.910Z,96297.34
2022-12-15T20:42:12.101Z,96313.13
2022-12-15T20:47:22.067Z,96196.59
2022-12-15T20:52:27.627Z,96258.63
2022-12-15T20:57:31.784Z,96060.41
2022-12-15T21:02:35.554Z,96178.06
2022-12-15T21:07:38.959Z,96199.03
2022-12-15T21:12:44.360Z,96181.88
2022-12-15T21:18:19.806Z,96174.81
2022-12-15T21:23:24.363Z,96133.03
2022-12-15T21:28:27.722Z,96142.38
2022-12-15T21:33:41.563Z,96008.75
2022-12-15T21:38:51.741Z,96120.66
2022-12-15T21:43:56.052Z,96079.25
2022-12-15T21:49:18.248Z,96038.00
2022-12-15T21:54:31.207Z,96143.59
2022-12-15T21:59:34.971Z,96126.25
2022-12-15T22:04:38.383Z,96118.25
2022-12-15T22:09:41.722Z,96140.59
2022-12-15T22:14:45.129Z,96095.22
2022-12-15T22:19:48.702Z,96146.63
2022-12-15T22:24:52.101Z,96145.69
2022-12-15T22:29:57.644Z,96148.75
2022-12-15T22:35:01.216Z,96063.59
2022-12-15T22:40:04.885Z,96018.06
2022-12-15T22:45:21.168Z,96132.19
2022-12-15T22:50:26.863Z,96137.78
2022-12-15T22:55:30.290Z,96110.44
2022-12-15T23:00:33.684Z,96119.50
2022-12-15T23:05:41.051Z,96115.28
2022-12-15T23:11:03.149Z,96087.81
2022-12-15T23:16:22.709Z,96143.16
2022-12-15T23:21:26.700Z,96183.53
2022-12-15T23:26:30.088Z,96128.94
2022-12-15T23:31:33.608Z,96099.59
2022-12-15T23:36:37.327Z,96143.47
2022-12-15T23:41:41.124Z,96153.09
2022-12-15T23:46:45.202Z,96129.81
2022-12-15T23:51:49.152Z,96149.94
2022-12-15T23:56:52.559Z,96111.63
